Time;durP1;ratioP1;P1;durP2;ratioP2;P2;SDS_P1;SDS_P2;PMS_P1;PMS_P2;Temp;Humidity;BMP_temperature;BMP_pressure;BME280_temperature;BME280_humidity;BME280_pressure;Samples;Min_cycle;Max_cycle;Signal;HPM_P1;HPM_P2
2022/09/27 00:02:06;;;;;;;11.63;9.53;;;;;;;16.29;100.00;93786.41;5082358;28;20697;-78
2022/09/27 00:04:33;;;;;;;13.23;9.57;;;;;;;16.31;100.00;93795.56;5081196;28;20200;-78
2022/09/27 00:07:01;;;;;;;14.17;9.50;;;;;;;16.34;100.00;93788.97;5083669;28;20200;-77
2022/09/27 00:09:29;;;;;;;12.40;10.10;;;;;;;16.10;100.00;93770.56;5084340;28;20209;-82
2022/09/27 00:11:55;;;;;;;11.33;9.70;;;;;;;16.07;100.00;93775.56;5090262;28;20200;-84
2022/09/27 00:14:22;;;;;;;15.10;10.27;;;;;;;16.13;100.00;93770.00;5093197;28;20748;-85
2022/09/27 00:16:49;;;;;;;11.57;9.93;;;;;;;16.12;100.00;93791.25;5093576;28;20208;-85
2022/09/27 00:19:21;;;;;;;13.60;9.73;;;;;;;15.92;100.00;93801.88;5094019;28;20687;-83
2022/09/27 00:21:48;;;;;;;13.93;9.63;;;;;;;16.00;100.00;93806.53;5096775;28;20216;-85
2022/09/27 00:24:17;;;;;;;13.50;8.90;;;;;;;15.92;100.00;93821.00;5087834;28;20201;-79
2022/09/27 00:26:45;;;;;;;13.33;9.70;;;;;;;15.61;100.00;93801.25;5084712;28;20714;-79
2022/09/27 00:29:13;;;;;;;12.63;9.23;;;;;;;15.42;100.00;93813.34;5087557;28;20205;-79
2022/09/27 00:31:40;;;;;;;11.87;9.60;;;;;;;15.42;100.00;93810.72;5087801;28;20209;-79
2022/09/27 00:34:10;;;;;;;12.03;9.90;;;;;;;15.56;100.00;93812.53;5089527;28;20225;-79
2022/09/27 00:36:38;;;;;;;11.93;9.20;;;;;;;15.60;100.00;93776.09;5085141;28;20678;-79
2022/09/27 00:39:05;;;;;;;12.27;8.90;;;;;;;15.43;100.00;93765.16;5090294;28;20678;-79
2022/09/27 00:41:34;;;;;;;12.27;9.73;;;;;;;15.40;100.00;93770.94;5089322;28;20204;-79
2022/09/27 00:44:03;;;;;;;18.03;9.40;;;;;;;15.32;100.00;93757.34;5086606;28;20211;-78
2022/09/27 00:46:33;;;;;;;11.80;8.83;;;;;;;15.28;100.00;93750.31;5086180;28;20232;-77
2022/09/27 00:49:08;;;;;;;12.53;9.77;;;;;;;15.20;100.00;93750.88;5085177;28;20201;-76
2022/09/27 00:51:37;;;;;;;13.77;9.33;;;;;;;15.30;100.00;93741.13;5085063;28;20250;-76
2022/09/27 00:54:10;;;;;;;11.07;9.40;;;;;;;15.34;100.00;93751.84;5087213;28;20216;-76
2022/09/27 00:56:37;;;;;;;12.17;9.77;;;;;;;15.40;100.00;93740.31;5085754;28;20197;-77
2022/09/27 00:59:11;;;;;;;16.10;10.00;;;;;;;15.46;100.00;93731.38;5084997;28;20224;-78
2022/09/27 01:01:38;;;;;;;13.93;10.67;;;;;;;15.46;100.00;93744.47;5088744;28;20209;-76
2022/09/27 01:04:09;;;;;;;13.13;10.20;;;;;;;15.44;100.00;93745.78;5087247;28;20200;-76
2022/09/27 01:06:36;;;;;;;11.93;10.00;;;;;;;15.53;100.00;93760.69;5089058;28;20198;-77
2022/09/27 01:09:05;;;;;;;13.57;10.37;;;;;;;15.51;100.00;93747.09;5086442;28;20205;-78
2022/09/27 01:11:43;;;;;;;19.80;10.20;;;;;;;15.62;100.00;93761.69;5087304;28;20205;-78
2022/09/27 01:14:37;;;;;;;12.73;10.03;;;;;;;15.64;100.00;93750.94;5082094;28;20224;-77
2022/09/27 01:17:22;;;;;;;16.10;10.00;;;;;;;15.67;100.00;93748.56;5083552;28;20220;-76
2022/09/27 01:20:24;;;;;;;11.90;9.13;;;;;;;15.69;100.00;93743.06;5086533;28;20209;-77
2022/09/27 01:23:05;;;;;;;14.20;9.63;;;;;;;15.57;100.00;93714.56;5084538;28;20208;-77
2022/09/27 01:25:48;;;;;;;12.47;9.27;;;;;;;15.61;100.00;93738.41;5083639;28;20208;-77
2022/09/27 01:28:40;;;;;;;12.90;9.67;;;;;;;15.57;100.00;93764.34;5085876;28;20288;-77
2022/09/27 01:31:19;;;;;;;13.30;9.30;;;;;;;15.62;100.00;93755.66;5083173;28;20208;-77
2022/09/27 01:33:51;;;;;;;12.53;9.57;;;;;;;15.56;100.00;93744.44;5084195;28;20239;-77
2022/09/27 01:36:26;;;;;;;12.43;8.93;;;;;;;15.64;100.00;93756.94;5083328;28;20205;-77
2022/09/27 01:39:05;;;;;;;13.90;9.57;;;;;;;15.59;100.00;93748.34;5085837;28;20238;-77
2022/09/27 01:41:37;;;;;;;12.80;8.77;;;;;;;15.46;100.00;93748.91;5085309;28;20207;-77
2022/09/27 01:44:07;;;;;;;14.67;9.70;;;;;;;15.45;100.00;93755.97;5085272;28;20196;-77
2022/09/27 01:46:40;;;;;;;12.87;9.10;;;;;;;15.45;100.00;93749.97;5083986;28;20228;-76
2022/09/27 01:49:12;;;;;;;12.13;9.13;;;;;;;15.44;100.00;93746.56;5086109;28;20578;-77
2022/09/27 01:51:44;;;;;;;12.43;9.53;;;;;;;15.40;100.00;93744.75;5086613;28;20208;-76
2022/09/27 01:54:22;;;;;;;14.40;10.83;;;;;;;15.27;100.00;93759.19;5085049;28;20209;-76
2022/09/27 01:56:52;;;;;;;15.00;10.23;;;;;;;14.98;100.00;93743.34;5087286;28;20208;-76
2022/09/27 01:59:24;;;;;;;16.00;11.70;;;;;;;14.89;100.00;93737.09;5083078;28;20208;-76
2022/09/27 02:01:53;;;;;;;16.87;12.17;;;;;;;14.99;100.00;93731.84;5085203;28;20217;-77
2022/09/27 02:04:24;;;;;;;18.00;13.90;;;;;;;15.06;100.00;93734.97;5085228;28;20208;-77
2022/09/27 02:06:58;;;;;;;23.77;18.63;;;;;;;15.10;100.00;93725.50;5085889;28;20215;-76
2022/09/27 02:09:30;;;;;;;23.87;18.50;;;;;;;15.17;100.00;93727.84;5083516;28;20569;-76
2022/09/27 02:12:03;;;;;;;30.73;21.30;;;;;;;15.23;100.00;93705.84;5082821;28;20200;-76
2022/09/27 02:14:37;;;;;;;31.30;22.00;;;;;;;15.17;100.00;93702.47;5082426;28;20215;-76
2022/09/27 02:17:12;;;;;;;29.10;21.47;;;;;;;15.27;100.00;93707.63;5084276;28;20200;-76
2022/09/27 02:19:47;;;;;;;29.07;20.33;;;;;;;15.38;100.00;93700.53;5082878;28;20192;-76
2022/09/27 02:22:20;;;;;;;24.67;18.87;;;;;;;15.39;100.00;93691.59;5082684;28;20197;-76
2022/09/27 02:24:53;;;;;;;25.17;18.23;;;;;;;15.35;100.00;93677.50;5085221;28;20207;-76
2022/09/27 02:27:26;;;;;;;23.93;16.93;;;;;;;15.43;100.00;93674.31;5089601;28;20289;-76
2022/09/27 02:29:58;;;;;;;19.40;14.60;;;;;;;15.39;100.00;93665.41;5083689;28;20205;-76
2022/09/27 02:32:27;;;;;;;18.33;14.23;;;;;;;15.41;100.00;93658.06;5084237;28;20197;-77
2022/09/27 02:34:56;;;;;;;20.73;13.73;;;;;;;15.42;100.00;93662.25;5084984;28;20312;-77
2022/09/27 02:37:23;;;;;;;24.03;13.40;;;;;;;15.45;100.00;93666.94;5084855;28;20613;-77
2022/09/27 02:39:50;;;;;;;18.67;11.97;;;;;;;15.52;100.00;93658.84;5083554;28;20224;-76
2022/09/27 02:42:17;;;;;;;14.40;11.23;;;;;;;15.54;100.00;93652.25;5083334;28;20212;-76
2022/09/27 02:44:44;;;;;;;14.40;10.23;;;;;;;15.46;100.00;93658.06;5081745;28;20197;-76
2022/09/27 02:47:35;;;;;;;13.63;10.30;;;;;;;15.45;100.00;93674.03;5084834;28;20236;-77
2022/09/27 02:50:17;;;;;;;13.50;10.50;;;;;;;15.50;100.00;93695.00;5081960;28;20217;-78
2022/09/27 02:52:56;;;;;;;12.53;10.17;;;;;;;15.42;100.00;93688.44;5082590;28;20583;-78
2022/09/27 02:55:33;;;;;;;14.00;10.07;;;;;;;15.40;100.00;93681.91;5082537;28;20220;-78
2022/09/27 02:58:11;;;;;;;12.03;9.70;;;;;;;15.29;100.00;93684.56;5081874;28;20674;-77
2022/09/27 03:00:46;;;;;;;12.27;10.20;;;;;;;15.32;100.00;93668.34;5083457;28;20204;-77
2022/09/27 03:03:21;;;;;;;14.50;10.27;;;;;;;15.33;100.00;93663.88;5083224;28;20201;-73
2022/09/27 03:05:53;;;;;;;13.63;10.83;;;;;;;15.42;100.00;93654.41;5081483;28;20208;-80
2022/09/27 03:08:21;;;;;;;12.70;10.17;;;;;;;15.31;100.00;93631.97;5081638;28;20220;-74
2022/09/27 03:10:48;;;;;;;12.57;10.23;;;;;;;15.27;100.00;93641.41;5084311;28;20211;-73
2022/09/27 03:13:15;;;;;;;18.53;10.30;;;;;;;15.29;100.00;93637.47;5083412;28;20267;-72
2022/09/27 03:15:42;;;;;;;12.10;10.07;;;;;;;15.16;100.00;93618.97;5081251;28;20202;-73
2022/09/27 03:18:08;;;;;;;16.47;10.20;;;;;;;14.97;100.00;93612.81;5081685;28;20232;-73
2022/09/27 03:20:36;;;;;;;12.13;9.97;;;;;;;14.78;100.00;93607.41;5083800;28;20288;-74
2022/09/27 03:23:03;;;;;;;14.97;10.47;;;;;;;14.87;100.00;93610.22;5083476;28;20201;-72
2022/09/27 03:25:30;;;;;;;14.70;10.80;;;;;;;14.80;100.00;93594.06;5083056;28;20197;-74
2022/09/27 03:27:57;;;;;;;13.80;10.50;;;;;;;14.91;100.00;93608.66;5086007;28;20238;-73
2022/09/27 03:30:24;;;;;;;15.47;10.90;;;;;;;14.98;100.00;93603.91;5082276;28;20232;-74
2022/09/27 03:32:51;;;;;;;14.37;11.03;;;;;;;15.13;100.00;93617.69;5083566;28;20209;-74
2022/09/27 03:35:17;;;;;;;17.37;11.57;;;;;;;15.19;100.00;93619.22;5083228;28;20259;-74
2022/09/27 03:37:46;;;;;;;13.67;10.97;;;;;;;15.30;100.00;93615.47;5082724;28;20231;-73
2022/09/27 03:40:13;;;;;;;13.93;11.37;;;;;;;15.34;100.00;93613.09;5081240;28;20228;-73
2022/09/27 03:42:40;;;;;;;14.40;11.10;;;;;;;15.37;100.00;93614.38;5084109;28;20205;-74
2022/09/27 03:45:08;;;;;;;16.20;11.47;;;;;;;15.38;100.00;93595.81;5083770;28;20205;-73
2022/09/27 03:47:35;;;;;;;12.60;10.77;;;;;;;15.41;100.00;93616.19;5082247;28;20313;-74
2022/09/27 03:50:02;;;;;;;14.67;11.23;;;;;;;15.43;100.00;93606.22;5081968;28;20212;-74
2022/09/27 03:52:29;;;;;;;17.07;11.20;;;;;;;15.43;100.00;93619.31;5084860;28;20211;-74
2022/09/27 03:54:57;;;;;;;14.90;11.07;;;;;;;15.46;100.00;93626.63;5083998;28;20240;-73
2022/09/27 03:57:24;;;;;;;18.47;11.13;;;;;;;15.46;100.00;93604.91;5084108;28;20205;-74
2022/09/27 03:59:51;;;;;;;16.03;11.80;;;;;;;15.54;100.00;93609.56;5085347;28;20339;-74
2022/09/27 04:02:18;;;;;;;13.57;11.43;;;;;;;15.56;100.00;93607.44;5082301;28;20212;-74
2022/09/27 04:04:45;;;;;;;15.03;11.93;;;;;;;15.61;100.00;93602.19;5082910;28;20204;-75
2022/09/27 04:07:12;;;;;;;15.67;12.03;;;;;;;15.65;100.00;93613.66;5083128;28;20201;-75
2022/09/27 04:09:40;;;;;;;20.03;13.47;;;;;;;15.58;100.00;93606.16;5082466;28;20208;-76
2022/09/27 04:12:09;;;;;;;18.50;13.43;;;;;;;15.47;100.00;93606.50;5082089;28;20205;-73
2022/09/27 04:14:35;;;;;;;18.93;13.47;;;;;;;15.43;100.00;93615.91;5083067;28;20209;-73
2022/09/27 04:17:02;;;;;;;16.87;12.73;;;;;;;15.38;100.00;93608.91;5082941;28;20205;-73
2022/09/27 04:19:29;;;;;;;18.30;13.53;;;;;;;15.39;100.00;93610.44;5082560;28;20205;-72
2022/09/27 04:21:56;;;;;;;19.03;13.70;;;;;;;15.42;100.00;93594.19;5082370;28;20299;-72
2022/09/27 04:24:24;;;;;;;19.73;12.83;;;;;;;15.47;100.00;93594.16;5082169;28;20197;-72
2022/09/27 04:26:50;;;;;;;20.07;14.23;;;;;;;15.51;100.00;93597.03;5080457;28;20209;-72
2022/09/27 04:29:19;;;;;;;17.93;13.30;;;;;;;15.46;100.00;93599.66;5083644;28;20220;-72
2022/09/27 04:31:45;;;;;;;17.47;13.80;;;;;;;15.39;100.00;93589.50;5083141;28;20339;-74
2022/09/27 04:34:12;;;;;;;18.27;15.03;;;;;;;15.43;100.00;93595.75;5081971;28;20228;-74
2022/09/27 04:36:38;;;;;;;20.60;15.03;;;;;;;15.49;100.00;93607.00;5082671;28;20284;-74
2022/09/27 04:39:07;;;;;;;19.17;15.07;;;;;;;15.45;100.00;93603.31;5082955;28;20284;-73
2022/09/27 04:41:34;;;;;;;20.87;16.00;;;;;;;15.50;100.00;93600.72;5081986;28;20204;-73
2022/09/27 04:44:02;;;;;;;25.73;16.47;;;;;;;15.50;100.00;93598.09;5084658;28;20295;-74
2022/09/27 04:46:30;;;;;;;22.43;15.23;;;;;;;15.60;100.00;93611.09;5081391;28;20196;-73
2022/09/27 04:48:58;;;;;;;21.97;14.63;;;;;;;15.50;100.00;93609.34;5077207;28;20282;-74
2022/09/27 04:51:25;;;;;;;20.80;14.67;;;;;;;15.56;100.00;93608.25;5083897;28;20209;-73
2022/09/27 04:53:52;;;;;;;20.50;15.13;;;;;;;15.60;100.00;93608.47;5083096;28;20228;-75
2022/09/27 04:56:19;;;;;;;23.53;17.10;;;;;;;15.48;100.00;93616.69;5082462;28;20257;-74
2022/09/27 04:58:46;;;;;;;22.30;17.73;;;;;;;15.23;100.00;93612.38;5084609;28;20208;-74
2022/09/27 05:01:19;;;;;;;17.50;14.57;;;;;;;14.92;100.00;93605.75;5087182;28;20811;-73
2022/09/27 05:03:48;;;;;;;21.97;15.87;;;;;;;14.92;100.00;93602.38;5085959;28;20213;-73
2022/09/27 05:06:15;;;;;;;21.67;15.77;;;;;;;14.98;100.00;93596.06;5086327;28;20223;-73
2022/09/27 05:08:41;;;;;;;25.80;16.00;;;;;;;15.04;100.00;93584.50;5085837;28;20201;-73
2022/09/27 05:11:08;;;;;;;20.67;15.73;;;;;;;15.14;100.00;93589.69;5084376;28;20643;-73
2022/09/27 05:13:35;;;;;;;19.47;15.63;;;;;;;15.11;100.00;93582.38;5084515;28;20208;-73
2022/09/27 05:16:03;;;;;;;20.83;15.90;;;;;;;15.26;100.00;93579.66;5086281;28;20220;-73
2022/09/27 05:18:30;;;;;;;22.03;16.17;;;;;;;15.33;100.00;93564.41;5085191;28;20231;-73
2022/09/27 05:20:59;;;;;;;21.77;15.13;;;;;;;15.36;100.00;93571.72;5081059;28;20583;-73
2022/09/27 05:23:26;;;;;;;21.77;13.90;;;;;;;15.35;100.00;93572.78;5079468;28;20702;-73
2022/09/27 05:25:54;;;;;;;19.67;14.23;;;;;;;15.30;100.00;93565.72;5083398;28;20210;-73
2022/09/27 05:28:21;;;;;;;20.90;14.80;;;;;;;15.35;100.00;93563.06;5086310;28;20207;-73
2022/09/27 05:30:48;;;;;;;17.97;14.20;;;;;;;15.43;100.00;93560.94;5084852;28;20208;-73
2022/09/27 05:33:15;;;;;;;19.77;13.53;;;;;;;15.50;100.00;93566.69;5084373;28;20651;-73
2022/09/27 05:35:43;;;;;;;22.17;14.23;;;;;;;15.56;100.00;93560.31;5082732;28;20231;-74
2022/09/27 05:38:12;;;;;;;21.70;13.87;;;;;;;15.61;100.00;93562.91;5085740;28;20618;-73
2022/09/27 05:40:41;;;;;;;21.33;14.37;;;;;;;15.64;100.00;93570.97;5084853;28;20200;-73
2022/09/27 05:43:09;;;;;;;19.10;13.83;;;;;;;15.64;100.00;93586.69;5084482;28;20228;-73
2022/09/27 05:45:36;;;;;;;15.27;12.43;;;;;;;15.68;100.00;93577.25;5083768;28;20205;-72
2022/09/27 05:48:03;;;;;;;17.70;12.63;;;;;;;15.64;100.00;93572.84;5085350;28;20244;-73
2022/09/27 05:50:29;;;;;;;19.43;12.30;;;;;;;15.69;100.00;93583.25;5085144;28;20211;-73
2022/09/27 05:52:56;;;;;;;20.23;13.57;;;;;;;15.72;100.00;93583.50;5084278;28;20215;-73
2022/09/27 05:55:25;;;;;;;16.70;12.87;;;;;;;15.61;100.00;93578.63;5084105;28;20575;-73
2022/09/27 05:57:56;;;;;;;17.63;13.93;;;;;;;15.62;100.00;93583.56;5082687;28;20772;-73
2022/09/27 06:00:24;;;;;;;20.03;14.53;;;;;;;15.65;100.00;93588.25;5085645;28;20193;-73
2022/09/27 06:02:56;;;;;;;19.40;14.00;;;;;;;15.69;100.00;93588.50;5085026;28;20223;-74
2022/09/27 06:05:23;;;;;;;17.33;13.80;;;;;;;15.67;100.00;93594.00;5083891;28;20252;-74
2022/09/27 06:07:50;;;;;;;20.33;13.40;;;;;;;15.57;100.00;93594.09;5082804;28;20204;-73
2022/09/27 06:10:18;;;;;;;19.87;13.10;;;;;;;15.58;100.00;93603.53;5085038;28;20212;-73
2022/09/27 06:12:46;;;;;;;17.13;13.80;;;;;;;15.61;100.00;93595.09;5085235;28;20193;-73
2022/09/27 06:15:14;;;;;;;17.60;12.83;;;;;;;15.65;100.00;93584.84;5084921;28;20253;-72
2022/09/27 06:17:41;;;;;;;17.30;13.10;;;;;;;15.55;100.00;93596.22;5086697;28;20704;-73
2022/09/27 06:20:09;;;;;;;18.57;13.47;;;;;;;15.60;100.00;93598.78;5086088;28;20200;-72
2022/09/27 06:22:36;;;;;;;19.47;13.63;;;;;;;15.76;100.00;93596.81;5085603;28;20201;-72
2022/09/27 06:25:04;;;;;;;17.63;14.23;;;;;;;15.88;100.00;93584.13;5084511;28;20662;-73
2022/09/27 06:27:31;;;;;;;18.67;13.50;;;;;;;15.84;100.00;93570.03;5083815;28;20218;-74
2022/09/27 06:29:59;;;;;;;16.40;13.37;;;;;;;15.92;100.00;93589.59;5083089;28;20682;-78
2022/09/27 06:32:26;;;;;;;17.80;14.13;;;;;;;15.90;100.00;93582.78;5086213;28;20212;-77
2022/09/27 06:34:52;;;;;;;18.43;13.73;;;;;;;15.93;100.00;93588.56;5085915;28;20232;-77
2022/09/27 06:37:19;;;;;;;23.60;14.20;;;;;;;15.90;100.00;93582.03;5085189;28;21578;-79
2022/09/27 06:39:47;;;;;;;26.00;14.53;;;;;;;15.92;100.00;93576.50;5083891;28;20209;-79
2022/09/27 06:42:16;;;;;;;17.57;14.30;;;;;;;15.84;100.00;93567.41;5086403;28;20224;-78
2022/09/27 06:44:46;;;;;;;17.90;14.10;;;;;;;15.83;100.00;93579.72;5085795;28;20250;-79
2022/09/27 06:47:14;;;;;;;20.60;14.77;;;;;;;15.84;100.00;93598.84;5084833;28;20224;-78
2022/09/27 06:49:41;;;;;;;21.03;13.87;;;;;;;15.88;100.00;93597.22;5083950;28;20347;-78
2022/09/27 06:52:08;;;;;;;19.67;15.00;;;;;;;15.94;100.00;93577.00;5084064;28;20682;-77
2022/09/27 06:54:35;;;;;;;20.47;14.60;;;;;;;15.98;100.00;93562.28;5082741;28;20548;-78
2022/09/27 06:57:02;;;;;;;21.73;15.63;;;;;;;16.03;100.00;93554.38;5084876;28;20231;-79
2022/09/27 07:02:14;;;;;;;22.23;15.33;;;;;;;16.10;100.00;93600.19;5081567;28;20212;-76
2022/09/27 07:04:42;;;;;;;23.13;16.10;;;;;;;16.16;100.00;93596.41;5085339;28;20202;-76
2022/09/27 07:07:09;;;;;;;20.60;15.43;;;;;;;16.16;100.00;93599.03;5084533;28;20210;-78
2022/09/27 07:09:37;;;;;;;23.30;16.00;;;;;;;16.17;100.00;93598.00;5083872;28;20201;-79
2022/09/27 07:12:05;;;;;;;21.03;15.80;;;;;;;16.13;100.00;93586.50;5083257;28;20220;-78
2022/09/27 07:14:32;;;;;;;23.77;17.33;;;;;;;16.14;100.00;93589.91;5082107;28;20209;-77
2022/09/27 07:16:59;;;;;;;21.93;16.33;;;;;;;16.15;100.00;93587.00;5078679;28;20232;-77
2022/09/27 07:19:27;;;;;;;23.67;17.27;;;;;;;16.11;100.00;93601.72;5081262;28;20224;-79
2022/09/27 07:21:54;;;;;;;24.63;17.53;;;;;;;15.98;100.00;93605.00;5083706;28;20208;-77
2022/09/27 07:24:21;;;;;;;25.40;17.80;;;;;;;15.99;100.00;93609.19;5083288;28;20659;-77
2022/09/27 07:26:48;;;;;;;23.33;16.93;;;;;;;16.00;100.00;93609.97;5087776;28;20201;-78
2022/09/27 07:29:15;;;;;;;24.43;17.17;;;;;;;16.04;100.00;93619.63;5084451;28;20212;-78
2022/09/27 07:31:42;;;;;;;25.53;17.77;;;;;;;15.98;100.00;93618.13;5083560;28;20759;-77
2022/09/27 07:34:10;;;;;;;25.00;18.97;;;;;;;15.88;100.00;93618.19;5083939;28;20713;-78
2022/09/27 07:36:38;;;;;;;27.33;18.73;;;;;;;15.86;100.00;93617.69;5081848;28;20225;-79
2022/09/27 07:39:06;;;;;;;26.03;17.13;;;;;;;15.79;100.00;93594.44;5081753;28;20208;-78
2022/09/27 07:41:32;;;;;;;23.30;17.70;;;;;;;16.00;100.00;93610.75;5084190;28;20274;-78
2022/09/27 07:43:59;;;;;;;22.67;16.77;;;;;;;16.08;100.00;93607.53;5087082;28;20209;-78
2022/09/27 07:46:26;;;;;;;20.60;16.00;;;;;;;16.16;100.00;93614.00;5082285;28;20589;-78
2022/09/27 07:48:53;;;;;;;24.57;16.37;;;;;;;16.12;100.00;93618.25;5082068;28;20292;-78
2022/09/27 07:51:20;;;;;;;22.33;16.20;;;;;;;16.11;100.00;93608.81;5085499;28;20209;-78
2022/09/27 07:53:48;;;;;;;22.67;17.37;;;;;;;16.23;100.00;93596.88;5084530;28;21006;-79
2022/09/27 07:56:15;;;;;;;22.27;16.70;;;;;;;16.29;100.00;93597.63;5083895;28;20710;-79
2022/09/27 07:58:42;;;;;;;23.83;17.07;;;;;;;16.24;100.00;93601.09;5084596;28;20211;-80
2022/09/27 08:01:10;;;;;;;19.20;15.90;;;;;;;16.28;100.00;93596.03;5086421;28;20693;-80
2022/09/27 08:03:37;;;;;;;22.57;17.27;;;;;;;16.27;100.00;93581.38;5085775;28;20670;-81
2022/09/27 08:06:04;;;;;;;25.30;17.73;;;;;;;16.17;100.00;93587.50;5085174;28;20200;-80
2022/09/27 08:08:31;;;;;;;20.57;16.93;;;;;;;16.33;100.00;93604.63;5087681;28;20200;-82
2022/09/27 08:10:59;;;;;;;24.67;17.83;;;;;;;16.35;100.00;93612.22;5079257;28;20214;-82
2022/09/27 08:13:26;;;;;;;26.70;17.90;;;;;;;16.28;100.00;93596.03;5084019;28;20196;-78
2022/09/27 08:15:53;;;;;;;25.70;18.80;;;;;;;16.11;100.00;93601.72;5084124;28;20236;-81
2022/09/27 08:18:20;;;;;;;24.33;18.13;;;;;;;15.69;100.00;93567.53;5084108;28;20200;-81
2022/09/27 08:20:47;;;;;;;27.60;18.57;;;;;;;15.63;100.00;93579.13;5082789;28;20377;-82
2022/09/27 08:23:14;;;;;;;24.60;18.70;;;;;;;15.50;100.00;93588.38;5081794;28;20197;-78
2022/09/27 08:25:42;;;;;;;29.70;19.40;;;;;;;15.61;100.00;93581.25;5071961;28;20209;-79
2022/09/27 08:28:10;;;;;;;31.03;21.23;;;;;;;15.65;100.00;93577.78;5085349;28;20655;-78
2022/09/27 08:30:37;;;;;;;28.20;19.97;;;;;;;15.85;100.00;93576.81;5083212;28;20231;-79
2022/09/27 08:33:04;;;;;;;30.23;20.80;;;;;;;16.00;100.00;93570.66;5081727;28;20289;-82
2022/09/27 08:35:32;;;;;;;25.40;19.33;;;;;;;16.11;100.00;93564.25;5079170;28;20221;-87
2022/09/27 08:38:01;;;;;;;24.07;18.77;;;;;;;16.38;100.00;93561.84;5092041;28;20208;-79
2022/09/27 08:40:38;;;;;;;27.17;18.10;;;;;;;16.64;100.00;93562.34;5088929;28;20276;-79
2022/09/27 08:43:14;;;;;;;24.03;17.20;;;;;;;16.88;100.00;93563.84;5077707;28;20245;-79
2022/09/27 08:45:49;;;;;;;20.90;16.03;;;;;;;17.02;100.00;93550.81;5088924;28;20203;-79
2022/09/27 08:48:18;;;;;;;21.27;16.07;;;;;;;17.36;100.00;93567.13;5081656;28;20233;-75
2022/09/27 08:50:46;;;;;;;21.73;15.67;;;;;;;17.63;100.00;93569.09;5080498;28;20979;-75
2022/09/27 08:53:20;;;;;;;19.23;14.93;;;;;;;17.90;100.00;93563.88;5080659;28;20204;-75
2022/09/27 08:55:49;;;;;;;17.83;14.13;;;;;;;18.17;100.00;93575.50;5079021;28;20586;-75
2022/09/27 08:58:25;;;;;;;18.52;13.73;;;;;;;18.34;100.00;93573.88;5076827;28;20213;-75
2022/09/27 09:00:57;;;;;;;17.77;13.43;;;;;;;18.51;100.00;93568.03;5082574;28;20663;-76
2022/09/27 09:03:27;;;;;;;23.02;15.15;;;;;;;18.61;100.00;93571.25;5073333;28;20220;-75
2022/09/27 09:06:09;;;;;;;16.73;13.90;;;;;;;18.83;100.00;93567.91;5078408;28;20240;-75
2022/09/27 09:08:44;;;;;;;19.98;13.07;;;;;;;18.93;100.00;93572.19;5089523;28;20216;-80
2022/09/27 09:14:37;;;;;;;16.50;13.40;;;;;;;19.23;100.00;93574.16;5087105;28;20268;-81
2022/09/27 09:17:20;;;;;;;16.60;13.52;;;;;;;19.53;100.00;93578.00;5081247;28;20217;-79
2022/09/27 09:20:12;;;;;;;18.90;13.30;;;;;;;19.85;100.00;93561.13;5088074;28;20201;-82
2022/09/27 09:23:04;;;;;;;15.93;12.25;;;;;;;19.88;100.00;93568.44;5094776;28;20690;-86
2022/09/27 09:25:41;;;;;;;16.95;12.98;;;;;;;19.68;100.00;93557.31;5096183;28;20193;-85
2022/09/27 09:28:24;;;;;;;17.02;12.75;;;;;;;19.27;100.00;93546.94;5075512;28;20195;-85
2022/09/27 09:31:04;;;;;;;15.80;12.68;;;;;;;18.90;100.00;93541.19;5074011;28;20211;-76
2022/09/27 09:33:35;;;;;;;18.85;13.05;;;;;;;19.33;100.00;93552.06;5085044;28;20201;-75
2022/09/27 09:36:05;;;;;;;17.58;12.35;;;;;;;19.84;100.00;93541.88;5083233;28;20210;-76
2022/09/27 09:38:39;;;;;;;14.98;11.63;;;;;;;20.36;100.00;93548.22;5083745;28;20197;-76
2022/09/27 09:41:11;;;;;;;13.80;10.63;;;;;;;20.80;100.00;93545.38;5087781;28;20193;-76
2022/09/27 09:43:44;;;;;;;11.65;9.93;;;;;;;21.14;100.00;93552.59;5082230;28;20738;-75
2022/09/27 09:46:16;;;;;;;25.48;14.45;;;;;;;21.57;100.00;93573.75;5078526;28;20193;-76
2022/09/27 09:48:48;;;;;;;13.23;10.13;;;;;;;21.97;100.00;93569.81;5084258;28;20212;-76
2022/09/27 09:51:21;;;;;;;11.45;9.85;;;;;;;21.72;100.00;93561.91;5082385;28;20196;-76
2022/09/27 09:53:54;;;;;;;12.90;10.25;;;;;;;21.61;100.00;93576.53;5083421;28;20227;-76
2022/09/27 09:56:25;;;;;;;11.90;8.95;;;;;;;21.45;100.00;93561.16;5074215;28;20319;-76
2022/09/27 09:58:55;;;;;;;12.23;9.10;;;;;;;21.40;100.00;93563.97;5080950;28;20213;-76
2022/09/27 10:01:27;;;;;;;14.38;9.50;;;;;;;21.18;100.00;93563.34;5074809;28;20282;-76
2022/09/27 10:03:55;;;;;;;29.58;20.42;;;;;;;21.10;100.00;93562.22;5078378;28;20580;-76
2022/09/27 10:06:24;;;;;;;19.83;14.45;;;;;;;20.87;100.00;93560.75;5083277;28;20201;-77
2022/09/27 10:08:53;;;;;;;10.90;9.80;;;;;;;20.56;100.00;93547.66;5073988;28;20687;-76
2022/09/27 10:11:24;;;;;;;14.70;11.57;;;;;;;20.25;100.00;93541.66;5076008;28;20273;-76
2022/09/27 10:13:51;;;;;;;13.18;10.77;;;;;;;20.11;100.00;93538.31;5081110;28;20196;-76
2022/09/27 10:16:20;;;;;;;14.52;10.52;;;;;;;20.22;100.00;93523.75;5079491;28;20228;-76
2022/09/27 10:18:51;;;;;;;15.27;10.90;;;;;;;20.43;100.00;93530.06;5077298;28;20201;-76
2022/09/27 10:21:25;;;;;;;13.50;10.65;;;;;;;20.62;100.00;93521.88;5074961;28;20699;-77
2022/09/27 10:24:12;;;;;;;12.57;10.30;;;;;;;20.86;100.00;93530.94;5072688;28;20205;-76
2022/09/27 10:26:42;;;;;;;11.27;10.05;;;;;;;21.05;100.00;93520.06;5072095;28;20197;-76
2022/09/27 10:29:16;;;;;;;13.02;9.98;;;;;;;21.21;100.00;93537.03;5074874;28;20208;-75
2022/09/27 10:31:46;;;;;;;11.02;9.85;;;;;;;21.15;100.00;93516.38;5072437;28;20205;-75
2022/09/27 10:34:24;;;;;;;13.18;9.45;;;;;;;21.34;100.00;93516.81;5071372;28;20215;-75
2022/09/27 10:37:06;;;;;;;15.48;10.07;;;;;;;21.39;100.00;93522.72;5071814;28;20596;-75
2022/09/27 10:39:35;;;;;;;12.40;9.90;;;;;;;21.44;100.00;93521.81;5072107;28;20197;-75
2022/09/27 10:42:02;;;;;;;13.57;10.43;;;;;;;21.50;100.00;93523.97;5071759;28;20224;-76
2022/09/27 10:44:31;;;;;;;14.45;9.55;;;;;;;21.55;100.00;93520.41;5083205;28;20205;-75
2022/09/27 10:47:06;;;;;;;11.88;9.60;;;;;;;22.14;100.00;93520.56;5083889;28;20263;-76
2022/09/27 10:49:37;;;;;;;10.90;8.85;;;;;;;22.90;100.00;93524.72;5082704;28;20287;-76
2022/09/27 10:52:09;;;;;;;13.32;8.90;;;;;;;23.57;97.44;93521.13;5086096;28;20223;-76
2022/09/27 10:54:39;;;;;;;11.27;8.20;;;;;;;23.59;96.00;93514.38;5084656;28;20216;-76
2022/09/27 10:57:16;;;;;;;10.27;8.35;;;;;;;23.05;98.03;93495.00;5081249;28;20651;-76
2022/09/27 10:59:47;;;;;;;10.75;8.02;;;;;;;23.13;99.55;93486.22;5082387;28;20292;-76
2022/09/27 11:02:21;;;;;;;11.52;7.95;;;;;;;23.84;94.15;93482.63;5084969;28;20288;-76
2022/09/27 11:07:51;;;;;;;11.20;7.18;;;;;;;24.43;90.93;93493.63;5085109;28;20561;-77
2022/09/27 11:10:27;;;;;;;8.88;6.50;;;;;;;24.83;90.39;93484.66;5084578;28;20207;-80
2022/09/27 11:13:14;;;;;;;10.45;6.82;;;;;;;25.26;87.75;93494.63;5084896;28;20201;-76
2022/09/27 11:16:01;;;;;;;9.30;6.28;;;;;;;24.88;84.61;93470.34;5082263;28;20208;-76
2022/09/27 11:18:33;;;;;;;7.88;5.93;;;;;;;24.81;85.87;93478.91;5084921;28;20216;-75
2022/09/27 11:21:13;;;;;;;8.52;5.72;;;;;;;24.63;88.25;93484.78;5085129;28;20196;-76
2022/09/27 11:23:57;;;;;;;7.00;5.55;;;;;;;24.54;87.07;93476.13;5083993;28;20193;-77
2022/09/27 11:26:37;;;;;;;6.97;5.55;;;;;;;24.55;87.91;93469.72;5083920;28;20232;-77
2022/09/27 11:29:17;;;;;;;11.07;6.25;;;;;;;24.08;89.02;93466.69;5085684;28;20232;-76
2022/09/27 11:31:58;;;;;;;9.30;6.97;;;;;;;24.26;89.47;93447.63;5083247;28;20203;-75
2022/09/27 11:34:40;;;;;;;9.88;6.60;;;;;;;24.70;89.21;93455.75;5084568;28;20200;-79
2022/09/27 11:37:15;;;;;;;10.63;6.70;;;;;;;25.46;86.74;93457.53;5082052;28;20200;-78